sensor_id;sensor_type;location;lat;lon;timestamp;P1;durP1;ratioP1;P2;durP2;ratioP2
36855;SDS011;22788;51.434;6.786;2023-04-15T00:00:46;8.27;;;4.40;;
36855;SDS011;22788;51.434;6.786;2023-04-15T00:03:12;5.40;;;3.90;;
36855;SDS011;22788;51.434;6.786;2023-04-15T00:05:39;6.37;;;4.30;;
36855;SDS011;22788;51.434;6.786;2023-04-15T00:08:04;7.80;;;4.23;;
36855;SDS011;22788;51.434;6.786;2023-04-15T00:10:30;6.83;;;4.67;;
36855;SDS011;22788;51.434;6.786;2023-04-15T00:12:55;7.33;;;3.67;;
36855;SDS011;22788;51.434;6.786;2023-04-15T00:15:21;7.40;;;3.70;;
36855;SDS011;22788;51.434;6.786;2023-04-15T00:17:48;7.77;;;4.30;;
36855;SDS011;22788;51.434;6.786;2023-04-15T00:20:15;7.60;;;4.78;;
36855;SDS011;22788;51.434;6.786;2023-04-15T00:22:42;10.90;;;7.40;;
36855;SDS011;22788;51.434;6.786;2023-04-15T00:25:07;10.93;;;7.23;;
36855;SDS011;22788;51.434;6.786;2023-04-15T00:27:33;12.60;;;7.77;;
36855;SDS011;22788;51.434;6.786;2023-04-15T00:29:59;11.27;;;7.50;;
36855;SDS011;22788;51.434;6.786;2023-04-15T00:32:25;9.87;;;6.30;;
36855;SDS011;22788;51.434;6.786;2023-04-15T00:34:50;8.93;;;5.70;;
36855;SDS011;22788;51.434;6.786;2023-04-15T00:37:16;8.80;;;6.10;;
36855;SDS011;22788;51.434;6.786;2023-04-15T00:39:43;6.83;;;5.03;;
36855;SDS011;22788;51.434;6.786;2023-04-15T00:42:08;12.67;;;5.70;;
36855;SDS011;22788;51.434;6.786;2023-04-15T00:44:34;8.70;;;5.53;;
36855;SDS011;22788;51.434;6.786;2023-04-15T00:47:00;7.27;;;5.47;;
36855;SDS011;22788;51.434;6.786;2023-04-15T00:49:26;9.67;;;5.73;;
36855;SDS011;22788;51.434;6.786;2023-04-15T00:51:53;9.43;;;5.40;;
36855;SDS011;22788;51.434;6.786;2023-04-15T00:54:18;6.23;;;4.43;;
36855;SDS011;22788;51.434;6.786;2023-04-15T00:56:45;8.57;;;5.10;;
36855;SDS011;22788;51.434;6.786;2023-04-15T00:59:11;8.83;;;5.27;;
36855;SDS011;22788;51.434;6.786;2023-04-15T01:01:37;8.77;;;5.20;;
36855;SDS011;22788;51.434;6.786;2023-04-15T01:04:03;6.60;;;4.70;;
36855;SDS011;22788;51.434;6.786;2023-04-15T01:06:29;8.43;;;4.40;;
36855;SDS011;22788;51.434;6.786;2023-04-15T01:08:56;8.50;;;4.60;;
36855;SDS011;22788;51.434;6.786;2023-04-15T01:11:22;8.47;;;4.77;;
36855;SDS011;22788;51.434;6.786;2023-04-15T01:13:50;7.50;;;5.00;;
36855;SDS011;22788;51.434;6.786;2023-04-15T01:16:16;8.90;;;4.73;;
36855;SDS011;22788;51.434;6.786;2023-04-15T01:18:42;6.50;;;4.73;;
36855;SDS011;22788;51.434;6.786;2023-04-15T01:21:09;5.13;;;4.27;;
36855;SDS011;22788;51.434;6.786;2023-04-15T01:23:35;8.43;;;4.70;;
36855;SDS011;22788;51.434;6.786;2023-04-15T01:26:02;6.17;;;5.20;;
36855;SDS011;22788;51.434;6.786;2023-04-15T01:28:28;5.57;;;4.57;;
36855;SDS011;22788;51.434;6.786;2023-04-15T01:31:04;8.27;;;4.83;;
36855;SDS011;22788;51.434;6.786;2023-04-15T01:33:31;8.73;;;4.90;;
36855;SDS011;22788;51.434;6.786;2023-04-15T01:35:57;7.83;;;5.30;;
36855;SDS011;22788;51.434;6.786;2023-04-15T01:38:24;8.13;;;4.97;;
36855;SDS011;22788;51.434;6.786;2023-04-15T01:40:50;5.67;;;4.63;;
36855;SDS011;22788;51.434;6.786;2023-04-15T01:43:17;7.70;;;5.10;;
36855;SDS011;22788;51.434;6.786;2023-04-15T01:45:43;7.27;;;4.40;;
36855;SDS011;22788;51.434;6.786;2023-04-15T01:48:09;6.97;;;4.33;;
36855;SDS011;22788;51.434;6.786;2023-04-15T01:50:34;9.20;;;4.90;;
36855;SDS011;22788;51.434;6.786;2023-04-15T01:53:00;7.37;;;4.63;;
36855;SDS011;22788;51.434;6.786;2023-04-15T01:55:25;7.03;;;5.10;;
36855;SDS011;22788;51.434;6.786;2023-04-15T01:57:51;5.40;;;4.50;;
36855;SDS011;22788;51.434;6.786;2023-04-15T02:00:18;7.20;;;4.40;;
36855;SDS011;22788;51.434;6.786;2023-04-15T02:02:44;7.83;;;4.87;;
36855;SDS011;22788;51.434;6.786;2023-04-15T02:05:09;6.30;;;4.63;;
36855;SDS011;22788;51.434;6.786;2023-04-15T02:07:35;6.97;;;5.17;;
36855;SDS011;22788;51.434;6.786;2023-04-15T02:10:01;8.90;;;5.23;;
36855;SDS011;22788;51.434;6.786;2023-04-15T02:12:26;6.37;;;4.73;;
36855;SDS011;22788;51.434;6.786;2023-04-15T02:14:52;5.70;;;5.10;;
36855;SDS011;22788;51.434;6.786;2023-04-15T02:17:19;8.97;;;5.53;;
36855;SDS011;22788;51.434;6.786;2023-04-15T02:19:44;8.30;;;5.63;;
36855;SDS011;22788;51.434;6.786;2023-04-15T02:22:10;8.63;;;5.47;;
36855;SDS011;22788;51.434;6.786;2023-04-15T02:24:35;9.30;;;5.57;;
36855;SDS011;22788;51.434;6.786;2023-04-15T02:27:01;8.63;;;5.70;;
36855;SDS011;22788;51.434;6.786;2023-04-15T02:29:27;7.93;;;5.10;;
36855;SDS011;22788;51.434;6.786;2023-04-15T02:31:52;8.00;;;5.17;;
36855;SDS011;22788;51.434;6.786;2023-04-15T02:34:19;7.80;;;5.07;;
36855;SDS011;22788;51.434;6.786;2023-04-15T02:36:45;7.23;;;5.40;;
36855;SDS011;22788;51.434;6.786;2023-04-15T02:39:10;5.17;;;4.60;;
36855;SDS011;22788;51.434;6.786;2023-04-15T02:41:36;6.63;;;5.27;;
36855;SDS011;22788;51.434;6.786;2023-04-15T02:44:01;6.40;;;4.97;;
36855;SDS011;22788;51.434;6.786;2023-04-15T02:46:27;8.20;;;5.33;;
36855;SDS011;22788;51.434;6.786;2023-04-15T02:48:53;7.40;;;4.70;;
36855;SDS011;22788;51.434;6.786;2023-04-15T02:51:20;6.97;;;4.63;;
36855;SDS011;22788;51.434;6.786;2023-04-15T02:53:46;6.83;;;4.47;;
36855;SDS011;22788;51.434;6.786;2023-04-15T02:56:13;6.30;;;4.67;;
36855;SDS011;22788;51.434;6.786;2023-04-15T02:58:38;7.43;;;4.83;;
36855;SDS011;22788;51.434;6.786;2023-04-15T03:01:04;6.47;;;4.30;;
36855;SDS011;22788;51.434;6.786;2023-04-15T03:03:30;6.27;;;4.40;;
36855;SDS011;22788;51.434;6.786;2023-04-15T03:05:55;7.83;;;5.13;;
36855;SDS011;22788;51.434;6.786;2023-04-15T03:08:22;9.90;;;5.00;;
36855;SDS011;22788;51.434;6.786;2023-04-15T03:10:48;8.20;;;5.87;;
36855;SDS011;22788;51.434;6.786;2023-04-15T03:13:14;6.97;;;5.30;;
36855;SDS011;22788;51.434;6.786;2023-04-15T03:15:39;9.97;;;5.87;;
36855;SDS011;22788;51.434;6.786;2023-04-15T03:18:05;6.43;;;5.07;;
36855;SDS011;22788;51.434;6.786;2023-04-15T03:20:30;8.63;;;6.17;;
36855;SDS011;22788;51.434;6.786;2023-04-15T03:22:56;7.37;;;5.37;;
36855;SDS011;22788;51.434;6.786;2023-04-15T03:25:23;7.20;;;5.23;;
36855;SDS011;22788;51.434;6.786;2023-04-15T03:27:49;8.73;;;5.53;;
36855;SDS011;22788;51.434;6.786;2023-04-15T03:30:14;8.83;;;5.90;;
36855;SDS011;22788;51.434;6.786;2023-04-15T03:32:40;9.73;;;5.50;;
36855;SDS011;22788;51.434;6.786;2023-04-15T03:35:06;7.10;;;5.90;;
36855;SDS011;22788;51.434;6.786;2023-04-15T03:37:31;9.07;;;6.43;;
36855;SDS011;22788;51.434;6.786;2023-04-15T03:39:57;10.33;;;5.20;;
36855;SDS011;22788;51.434;6.786;2023-04-15T03:42:24;8.00;;;5.80;;
36855;SDS011;22788;51.434;6.786;2023-04-15T03:44:50;8.03;;;5.80;;
36855;SDS011;22788;51.434;6.786;2023-04-15T03:47:15;7.63;;;5.23;;
36855;SDS011;22788;51.434;6.786;2023-04-15T03:49:41;8.30;;;5.80;;
36855;SDS011;22788;51.434;6.786;2023-04-15T03:52:07;7.47;;;5.37;;
36855;SDS011;22788;51.434;6.786;2023-04-15T03:54:32;8.20;;;5.80;;
36855;SDS011;22788;51.434;6.786;2023-04-15T03:56:58;7.97;;;5.60;;
36855;SDS011;22788;51.434;6.786;2023-04-15T03:59:25;6.90;;;5.27;;
36855;SDS011;22788;51.434;6.786;2023-04-15T04:01:50;7.33;;;5.63;;
36855;SDS011;22788;51.434;6.786;2023-04-15T04:04:16;6.90;;;5.70;;
36855;SDS011;22788;51.434;6.786;2023-04-15T04:06:41;10.00;;;5.63;;
36855;SDS011;22788;51.434;6.786;2023-04-15T04:09:07;8.73;;;4.80;;
36855;SDS011;22788;51.434;6.786;2023-04-15T04:11:33;7.07;;;5.20;;
36855;SDS011;22788;51.434;6.786;2023-04-15T04:13:58;9.00;;;5.50;;
36855;SDS011;22788;51.434;6.786;2023-04-15T04:16:25;7.33;;;5.57;;
36855;SDS011;22788;51.434;6.786;2023-04-15T04:18:51;6.07;;;5.23;;
36855;SDS011;22788;51.434;6.786;2023-04-15T04:21:16;11.67;;;5.83;;
36855;SDS011;22788;51.434;6.786;2023-04-15T04:23:42;7.13;;;5.67;;
36855;SDS011;22788;51.434;6.786;2023-04-15T04:26:08;7.60;;;4.73;;
36855;SDS011;22788;51.434;6.786;2023-04-15T04:28:33;7.53;;;5.47;;
36855;SDS011;22788;51.434;6.786;2023-04-15T04:30:59;11.53;;;5.97;;
36855;SDS011;22788;51.434;6.786;2023-04-15T04:33:26;7.40;;;5.70;;
36855;SDS011;22788;51.434;6.786;2023-04-15T04:35:52;8.90;;;5.67;;
36855;SDS011;22788;51.434;6.786;2023-04-15T04:38:17;8.57;;;5.10;;
36855;SDS011;22788;51.434;6.786;2023-04-15T04:40:43;8.73;;;5.23;;
36855;SDS011;22788;51.434;6.786;2023-04-15T04:43:08;9.87;;;6.43;;
36855;SDS011;22788;51.434;6.786;2023-04-15T04:45:34;8.23;;;5.60;;
36855;SDS011;22788;51.434;6.786;2023-04-15T04:48:00;8.23;;;5.90;;
36855;SDS011;22788;51.434;6.786;2023-04-15T04:50:27;6.40;;;5.53;;
36855;SDS011;22788;51.434;6.786;2023-04-15T04:52:52;6.90;;;5.13;;
36855;SDS011;22788;51.434;6.786;2023-04-15T04:55:18;6.77;;;5.13;;
36855;SDS011;22788;51.434;6.786;2023-04-15T04:57:44;8.73;;;6.33;;
36855;SDS011;22788;51.434;6.786;2023-04-15T05:00:10;8.30;;;5.43;;
36855;SDS011;22788;51.434;6.786;2023-04-15T05:02:36;8.53;;;5.73;;
36855;SDS011;22788;51.434;6.786;2023-04-15T05:05:02;8.40;;;6.00;;
36855;SDS011;22788;51.434;6.786;2023-04-15T05:07:29;9.60;;;5.80;;
36855;SDS011;22788;51.434;6.786;2023-04-15T05:09:55;9.13;;;5.93;;
36855;SDS011;22788;51.434;6.786;2023-04-15T05:12:21;8.77;;;6.33;;
36855;SDS011;22788;51.434;6.786;2023-04-15T05:14:46;8.70;;;5.90;;
36855;SDS011;22788;51.434;6.786;2023-04-15T05:17:12;7.30;;;5.20;;
36855;SDS011;22788;51.434;6.786;2023-04-15T05:19:37;6.10;;;4.80;;
36855;SDS011;22788;51.434;6.786;2023-04-15T05:22:03;8.83;;;5.50;;
36855;SDS011;22788;51.434;6.786;2023-04-15T05:24:30;7.60;;;5.83;;
36855;SDS011;22788;51.434;6.786;2023-04-15T05:26:56;8.60;;;5.90;;
36855;SDS011;22788;51.434;6.786;2023-04-15T05:29:21;7.03;;;5.30;;
36855;SDS011;22788;51.434;6.786;2023-04-15T05:31:47;7.57;;;5.47;;
36855;SDS011;22788;51.434;6.786;2023-04-15T05:34:13;7.37;;;4.87;;
36855;SDS011;22788;51.434;6.786;2023-04-15T05:36:38;9.23;;;5.93;;
36855;SDS011;22788;51.434;6.786;2023-04-15T05:39:04;8.47;;;5.77;;
36855;SDS011;22788;51.434;6.786;2023-04-15T05:41:31;8.50;;;6.40;;
36855;SDS011;22788;51.434;6.786;2023-04-15T05:43:56;7.00;;;5.67;;
36855;SDS011;22788;51.434;6.786;2023-04-15T05:46:22;6.53;;;5.33;;
36855;SDS011;22788;51.434;6.786;2023-04-15T05:48:48;8.50;;;5.43;;
36855;SDS011;22788;51.434;6.786;2023-04-15T05:51:13;8.23;;;6.10;;
36855;SDS011;22788;51.434;6.786;2023-04-15T05:53:39;8.93;;;5.23;;
36855;SDS011;22788;51.434;6.786;2023-04-15T05:56:05;10.90;;;6.00;;
36855;SDS011;22788;51.434;6.786;2023-04-15T05:58:32;10.10;;;6.37;;
36855;SDS011;22788;51.434;6.786;2023-04-15T06:00:58;8.10;;;5.63;;
36855;SDS011;22788;51.434;6.786;2023-04-15T06:03:23;9.27;;;6.30;;
36855;SDS011;22788;51.434;6.786;2023-04-15T06:05:49;7.87;;;6.17;;
36855;SDS011;22788;51.434;6.786;2023-04-15T06:08:15;8.67;;;6.20;;
36855;SDS011;22788;51.434;6.786;2023-04-15T06:10:40;7.90;;;6.00;;
36855;SDS011;22788;51.434;6.786;2023-04-15T06:13:06;8.37;;;6.30;;
36855;SDS011;22788;51.434;6.786;2023-04-15T06:15:33;9.33;;;5.70;;
36855;SDS011;22788;51.434;6.786;2023-04-15T06:17:59;10.93;;;6.97;;
36855;SDS011;22788;51.434;6.786;2023-04-15T06:20:24;10.33;;;5.97;;
36855;SDS011;22788;51.434;6.786;2023-04-15T06:22:50;8.77;;;6.23;;
36855;SDS011;22788;51.434;6.786;2023-04-15T06:25:16;8.77;;;6.60;;
36855;SDS011;22788;51.434;6.786;2023-04-15T06:27:42;7.43;;;5.70;;
36855;SDS011;22788;51.434;6.786;2023-04-15T06:30:07;9.23;;;6.00;;
36855;SDS011;22788;51.434;6.786;2023-04-15T06:32:35;8.93;;;6.10;;
36855;SDS011;22788;51.434;6.786;2023-04-15T06:35:01;9.20;;;6.27;;
36855;SDS011;22788;51.434;6.786;2023-04-15T06:37:26;7.50;;;6.23;;
36855;SDS011;22788;51.434;6.786;2023-04-15T06:39:52;7.97;;;6.33;;
36855;SDS011;22788;51.434;6.786;2023-04-15T06:42:17;8.67;;;6.63;;
36855;SDS011;22788;51.434;6.786;2023-04-15T06:44:43;8.33;;;6.63;;
36855;SDS011;22788;51.434;6.786;2023-04-15T06:47:09;8.77;;;5.97;;
36855;SDS011;22788;51.434;6.786;2023-04-15T06:49:36;7.17;;;5.57;;
36855;SDS011;22788;51.434;6.786;2023-04-15T06:52:01;8.80;;;6.10;;
36855;SDS011;22788;51.434;6.786;2023-04-15T06:54:27;9.77;;;6.50;;
36855;SDS011;22788;51.434;6.786;2023-04-15T06:56:52;7.27;;;5.80;;
36855;SDS011;22788;51.434;6.786;2023-04-15T06:59:18;7.33;;;6.20;;
36855;SDS011;22788;51.434;6.786;2023-04-15T07:01:44;8.60;;;5.57;;
36855;SDS011;22788;51.434;6.786;2023-04-15T07:04:09;9.97;;;6.93;;
36855;SDS011;22788;51.434;6.786;2023-04-15T07:06:36;9.73;;;6.73;;
36855;SDS011;22788;51.434;6.786;2023-04-15T07:09:02;7.87;;;5.70;;
36855;SDS011;22788;51.434;6.786;2023-04-15T07:11:27;9.20;;;6.70;;
36855;SDS011;22788;51.434;6.786;2023-04-15T07:13:53;8.50;;;5.97;;
36855;SDS011;22788;51.434;6.786;2023-04-15T07:16:19;6.63;;;5.70;;
36855;SDS011;22788;51.434;6.786;2023-04-15T07:18:44;9.10;;;6.57;;
36855;SDS011;22788;51.434;6.786;2023-04-15T07:21:10;8.43;;;6.17;;
36855;SDS011;22788;51.434;6.786;2023-04-15T07:23:37;7.67;;;5.97;;
36855;SDS011;22788;51.434;6.786;2023-04-15T07:26:03;8.83;;;6.60;;
36855;SDS011;22788;51.434;6.786;2023-04-15T07:28:28;7.77;;;5.47;;
36855;SDS011;22788;51.434;6.786;2023-04-15T07:30:54;5.47;;;4.90;;
36855;SDS011;22788;51.434;6.786;2023-04-15T07:33:20;8.37;;;5.40;;
36855;SDS011;22788;51.434;6.786;2023-04-15T07:35:45;9.77;;;6.33;;
36855;SDS011;22788;51.434;6.786;2023-04-15T07:38:11;9.57;;;5.40;;
36855;SDS011;22788;51.434;6.786;2023-04-15T07:40:38;7.97;;;5.37;;
36855;SDS011;22788;51.434;6.786;2023-04-15T07:43:04;7.23;;;5.00;;
36855;SDS011;22788;51.434;6.786;2023-04-15T07:45:29;6.57;;;5.17;;
36855;SDS011;22788;51.434;6.786;2023-04-15T07:47:55;6.53;;;4.37;;
36855;SDS011;22788;51.434;6.786;2023-04-15T07:50:20;7.50;;;4.90;;
36855;SDS011;22788;51.434;6.786;2023-04-15T07:52:46;9.13;;;5.20;;
36855;SDS011;22788;51.434;6.786;2023-04-15T07:55:13;7.67;;;4.93;;
36855;SDS011;22788;51.434;6.786;2023-04-15T07:57:39;7.00;;;4.77;;
36855;SDS011;22788;51.434;6.786;2023-04-15T08:00:06;7.27;;;5.03;;
36855;SDS011;22788;51.434;6.786;2023-04-15T08:02:32;9.10;;;5.23;;
36855;SDS011;22788;51.434;6.786;2023-04-15T08:04:58;5.00;;;3.90;;
36855;SDS011;22788;51.434;6.786;2023-04-15T08:07:24;5.90;;;4.43;;
36855;SDS011;22788;51.434;6.786;2023-04-15T08:09:50;6.07;;;4.30;;
36855;SDS011;22788;51.434;6.786;2023-04-15T08:12:15;8.67;;;5.00;;
36855;SDS011;22788;51.434;6.786;2023-04-15T08:14:42;5.30;;;3.40;;
36855;SDS011;22788;51.434;6.786;2023-04-15T08:17:08;5.00;;;4.50;;
36855;SDS011;22788;51.434;6.786;2023-04-15T08:19:34;4.70;;;3.73;;
36855;SDS011;22788;51.434;6.786;2023-04-15T08:21:59;6.90;;;3.73;;
36855;SDS011;22788;51.434;6.786;2023-04-15T08:24:25;5.57;;;3.60;;
36855;SDS011;22788;51.434;6.786;2023-04-15T08:26:50;4.47;;;3.50;;
36855;SDS011;22788;51.434;6.786;2023-04-15T08:29:16;5.60;;;3.77;;
36855;SDS011;22788;51.434;6.786;2023-04-15T08:31:43;6.53;;;4.20;;
36855;SDS011;22788;51.434;6.786;2023-04-15T08:34:09;5.23;;;3.47;;
36855;SDS011;22788;51.434;6.786;2023-04-15T08:36:35;3.47;;;3.17;;
36855;SDS011;22788;51.434;6.786;2023-04-15T08:39:01;3.90;;;3.40;;
36855;SDS011;22788;51.434;6.786;2023-04-15T08:41:26;4.93;;;3.60;;
36855;SDS011;22788;51.434;6.786;2023-04-15T08:44:00;4.10;;;3.60;;
36855;SDS011;22788;51.434;6.786;2023-04-15T08:46:28;3.83;;;3.10;;
36855;SDS011;22788;51.434;6.786;2023-04-15T08:48:56;5.40;;;3.40;;
36855;SDS011;22788;51.434;6.786;2023-04-15T08:51:23;5.27;;;3.50;;
36855;SDS011;22788;51.434;6.786;2023-04-15T10:06:50;5.33;;;3.03;;
36855;SDS011;22788;51.434;6.786;2023-04-15T10:09:16;4.50;;;3.90;;
36855;SDS011;22788;51.434;6.786;2023-04-15T10:11:42;7.13;;;3.00;;
36855;SDS011;22788;51.434;6.786;2023-04-15T10:14:08;3.93;;;3.30;;
36855;SDS011;22788;51.434;6.786;2023-04-15T10:16:34;4.00;;;3.40;;
36855;SDS011;22788;51.434;6.786;2023-04-15T10:19:04;4.10;;;3.57;;
36855;SDS011;22788;51.434;6.786;2023-04-15T10:21:32;4.30;;;3.40;;
36855;SDS011;22788;51.434;6.786;2023-04-15T10:23:59;4.80;;;3.60;;
36855;SDS011;22788;51.434;6.786;2023-04-15T10:26:27;5.30;;;4.03;;
36855;SDS011;22788;51.434;6.786;2023-04-15T10:28:53;4.70;;;3.47;;
36855;SDS011;22788;51.434;6.786;2023-04-15T10:31:19;4.53;;;3.97;;
36855;SDS011;22788;51.434;6.786;2023-04-15T10:33:45;5.00;;;4.17;;
36855;SDS011;22788;51.434;6.786;2023-04-15T10:36:12;4.57;;;4.10;;
36855;SDS011;22788;51.434;6.786;2023-04-15T10:38:39;4.97;;;3.93;;
36855;SDS011;22788;51.434;6.786;2023-04-15T10:41:26;4.93;;;3.93;;
36855;SDS011;22788;51.434;6.786;2023-04-15T10:43:53;4.23;;;3.83;;
36855;SDS011;22788;51.434;6.786;2023-04-15T10:46:23;4.07;;;3.30;;
36855;SDS011;22788;51.434;6.786;2023-04-15T10:48:58;8.27;;;3.90;;
36855;SDS011;22788;51.434;6.786;2023-04-15T10:51:31;6.87;;;4.13;;
36855;SDS011;22788;51.434;6.786;2023-04-15T10:53:58;6.63;;;4.57;;
36855;SDS011;22788;51.434;6.786;2023-04-15T10:56:25;4.63;;;3.73;;
36855;SDS011;22788;51.434;6.786;2023-04-15T10:58:52;4.23;;;3.43;;
36855;SDS011;22788;51.434;6.786;2023-04-15T11:01:18;4.87;;;3.27;;
36855;SDS011;22788;51.434;6.786;2023-04-15T11:03:44;5.67;;;4.20;;
36855;SDS011;22788;51.434;6.786;2023-04-15T11:06:10;5.17;;;3.50;;
36855;SDS011;22788;51.434;6.786;2023-04-15T11:08:55;3.70;;;3.20;;
36855;SDS011;22788;51.434;6.786;2023-04-15T11:14:31;5.57;;;4.20;;
36855;SDS011;22788;51.434;6.786;2023-04-15T11:16:57;5.40;;;3.60;;
36855;SDS011;22788;51.434;6.786;2023-04-15T11:19:23;4.20;;;3.43;;
36855;SDS011;22788;51.434;6.786;2023-04-15T11:21:48;4.07;;;3.03;;
36855;SDS011;22788;51.434;6.786;2023-04-15T11:24:22;3.93;;;3.27;;
36855;SDS011;22788;51.434;6.786;2023-04-15T11:26:48;5.10;;;3.20;;
36855;SDS011;22788;51.434;6.786;2023-04-15T11:29:17;4.13;;;3.10;;
36855;SDS011;22788;51.434;6.786;2023-04-15T11:31:45;5.10;;;3.30;;
36855;SDS011;22788;51.434;6.786;2023-04-15T11:34:11;4.97;;;3.30;;
36855;SDS011;22788;51.434;6.786;2023-04-15T11:36:46;6.73;;;3.37;;
36855;SDS011;22788;51.434;6.786;2023-04-15T11:39:11;3.93;;;3.53;;
36855;SDS011;22788;51.434;6.786;2023-04-15T11:41:37;4.50;;;3.23;;
36855;SDS011;22788;51.434;6.786;2023-04-15T11:44:14;5.13;;;3.55;;
36855;SDS011;22788;51.434;6.786;2023-04-15T11:46:42;3.40;;;3.00;;
36855;SDS011;22788;51.434;6.786;2023-04-15T11:49:07;3.87;;;3.10;;
36855;SDS011;22788;51.434;6.786;2023-04-15T11:51:33;4.63;;;3.27;;
36855;SDS011;22788;51.434;6.786;2023-04-15T11:53:59;4.33;;;3.60;;
36855;SDS011;22788;51.434;6.786;2023-04-15T11:56:25;3.97;;;3.53;;
36855;SDS011;22788;51.434;6.786;2023-04-15T11:58:51;5.07;;;3.30;;
36855;SDS011;22788;51.434;6.786;2023-04-15T12:01:17;4.50;;;2.97;;
36855;SDS011;22788;51.434;6.786;2023-04-15T12:03:45;3.13;;;2.73;;
36855;SDS011;22788;51.434;6.786;2023-04-15T12:06:12;3.13;;;2.73;;
36855;SDS011;22788;51.434;6.786;2023-04-15T12:08:51;5.90;;;2.57;;
36855;SDS011;22788;51.434;6.786;2023-04-15T12:11:26;2.80;;;2.47;;
36855;SDS011;22788;51.434;6.786;2023-04-15T12:13:55;4.40;;;2.90;;
36855;SDS011;22788;51.434;6.786;2023-04-15T12:16:21;4.93;;;3.53;;
36855;SDS011;22788;51.434;6.786;2023-04-15T12:18:51;6.87;;;3.40;;
36855;SDS011;22788;51.434;6.786;2023-04-15T12:21:17;6.03;;;3.17;;
36855;SDS011;22788;51.434;6.786;2023-04-15T12:23:47;5.73;;;3.23;;
36855;SDS011;22788;51.434;6.786;2023-04-15T12:26:13;4.10;;;3.03;;
36855;SDS011;22788;51.434;6.786;2023-04-15T12:28:39;5.13;;;3.37;;
36855;SDS011;22788;51.434;6.786;2023-04-15T12:31:07;3.50;;;2.77;;
36855;SDS011;22788;51.434;6.786;2023-04-15T12:33:33;3.77;;;3.03;;
36855;SDS011;22788;51.434;6.786;2023-04-15T12:36:01;3.50;;;3.07;;
36855;SDS011;22788;51.434;6.786;2023-04-15T12:38:27;3.27;;;2.70;;
36855;SDS011;22788;51.434;6.786;2023-04-15T12:40:53;3.57;;;3.20;;
36855;SDS011;22788;51.434;6.786;2023-04-15T12:43:19;3.97;;;3.17;;
36855;SDS011;22788;51.434;6.786;2023-04-15T12:45:44;4.83;;;3.60;;
36855;SDS011;22788;51.434;6.786;2023-04-15T12:48:10;3.33;;;2.47;;
36855;SDS011;22788;51.434;6.786;2023-04-15T12:50:35;4.20;;;2.93;;
36855;SDS011;22788;51.434;6.786;2023-04-15T12:53:02;3.33;;;2.83;;
36855;SDS011;22788;51.434;6.786;2023-04-15T12:55:28;3.33;;;2.87;;
36855;SDS011;22788;51.434;6.786;2023-04-15T12:57:54;3.30;;;2.77;;
36855;SDS011;22788;51.434;6.786;2023-04-15T13:00:22;2.67;;;2.33;;
36855;SDS011;22788;51.434;6.786;2023-04-15T13:02:47;3.17;;;2.53;;
36855;SDS011;22788;51.434;6.786;2023-04-15T13:05:13;3.57;;;2.73;;
36855;SDS011;22788;51.434;6.786;2023-04-15T13:07:39;3.47;;;2.67;;
36855;SDS011;22788;51.434;6.786;2023-04-15T13:10:07;2.70;;;2.33;;
36855;SDS011;22788;51.434;6.786;2023-04-15T13:12:33;3.80;;;3.10;;
36855;SDS011;22788;51.434;6.786;2023-04-15T13:14:58;5.17;;;3.57;;
36855;SDS011;22788;51.434;6.786;2023-04-15T13:17:24;4.37;;;2.70;;
36855;SDS011;22788;51.434;6.786;2023-04-15T13:19:50;7.73;;;2.73;;
36855;SDS011;22788;51.434;6.786;2023-04-15T13:22:15;3.13;;;2.60;;
36855;SDS011;22788;51.434;6.786;2023-04-15T13:24:41;3.30;;;2.83;;
36855;SDS011;22788;51.434;6.786;2023-04-15T13:27:08;5.13;;;2.60;;
36855;SDS011;22788;51.434;6.786;2023-04-15T13:29:33;3.40;;;2.53;;
36855;SDS011;22788;51.434;6.786;2023-04-15T13:31:59;3.97;;;2.30;;
36855;SDS011;22788;51.434;6.786;2023-04-15T13:34:24;3.57;;;2.43;;
36855;SDS011;22788;51.434;6.786;2023-04-15T13:36:50;2.90;;;2.60;;
36855;SDS011;22788;51.434;6.786;2023-04-15T13:39:16;2.33;;;2.13;;
36855;SDS011;22788;51.434;6.786;2023-04-15T13:41:41;3.90;;;2.40;;
36855;SDS011;22788;51.434;6.786;2023-04-15T13:44:08;3.30;;;2.40;;
36855;SDS011;22788;51.434;6.786;2023-04-15T13:46:34;4.27;;;2.57;;
36855;SDS011;22788;51.434;6.786;2023-04-15T13:48:59;5.00;;;2.87;;
36855;SDS011;22788;51.434;6.786;2023-04-15T13:51:25;3.83;;;2.47;;
36855;SDS011;22788;51.434;6.786;2023-04-15T13:53:51;4.90;;;2.80;;
36855;SDS011;22788;51.434;6.786;2023-04-15T13:56:16;4.73;;;2.37;;
36855;SDS011;22788;51.434;6.786;2023-04-15T13:58:42;3.23;;;2.40;;
36855;SDS011;22788;51.434;6.786;2023-04-15T14:01:09;3.87;;;2.43;;
36855;SDS011;22788;51.434;6.786;2023-04-15T14:03:34;3.10;;;2.43;;
36855;SDS011;22788;51.434;6.786;2023-04-15T14:06:00;2.50;;;2.30;;
36855;SDS011;22788;51.434;6.786;2023-04-15T14:08:26;2.87;;;2.47;;
36855;SDS011;22788;51.434;6.786;2023-04-15T14:10:51;3.93;;;2.10;;
36855;SDS011;22788;51.434;6.786;2023-04-15T14:13:17;3.83;;;2.20;;
36855;SDS011;22788;51.434;6.786;2023-04-15T14:15:43;2.07;;;1.87;;
36855;SDS011;22788;51.434;6.786;2023-04-15T14:18:10;5.77;;;3.00;;
36855;SDS011;22788;51.434;6.786;2023-04-15T14:20:35;3.23;;;2.30;;
36855;SDS011;22788;51.434;6.786;2023-04-15T14:23:01;9.07;;;2.23;;
36855;SDS011;22788;51.434;6.786;2023-04-15T14:25:27;2.63;;;1.93;;
36855;SDS011;22788;51.434;6.786;2023-04-15T14:27:52;3.38;;;2.25;;
36855;SDS011;22788;51.434;6.786;2023-04-15T14:30:18;3.50;;;2.40;;
36855;SDS011;22788;51.434;6.786;2023-04-15T14:32:43;2.67;;;2.43;;
36855;SDS011;22788;51.434;6.786;2023-04-15T14:35:11;2.47;;;1.90;;
36855;SDS011;22788;51.434;6.786;2023-04-15T14:37:36;2.83;;;1.80;;
36855;SDS011;22788;51.434;6.786;2023-04-15T14:40:02;3.47;;;2.30;;
36855;SDS011;22788;51.434;6.786;2023-04-15T14:42:28;3.33;;;2.07;;
36855;SDS011;22788;51.434;6.786;2023-04-15T14:44:53;3.10;;;2.00;;
36855;SDS011;22788;51.434;6.786;2023-04-15T14:47:19;5.93;;;1.90;;
36855;SDS011;22788;51.434;6.786;2023-04-15T14:49:45;2.97;;;2.17;;
36855;SDS011;22788;51.434;6.786;2023-04-15T14:52:12;5.33;;;2.50;;
36855;SDS011;22788;51.434;6.786;2023-04-15T14:54:37;3.70;;;2.47;;
36855;SDS011;22788;51.434;6.786;2023-04-15T14:57:03;2.47;;;2.20;;
36855;SDS011;22788;51.434;6.786;2023-04-15T14:59:28;2.97;;;2.00;;
36855;SDS011;22788;51.434;6.786;2023-04-15T15:01:54;4.70;;;2.50;;
36855;SDS011;22788;51.434;6.786;2023-04-15T15:04:20;2.73;;;2.07;;
36855;SDS011;22788;51.434;6.786;2023-04-15T15:06:45;3.00;;;2.33;;
36855;SDS011;22788;51.434;6.786;2023-04-15T15:09:12;4.00;;;2.53;;
36855;SDS011;22788;51.434;6.786;2023-04-15T15:11:38;2.47;;;2.10;;
36855;SDS011;22788;51.434;6.786;2023-04-15T15:14:03;2.37;;;2.00;;
36855;SDS011;22788;51.434;6.786;2023-04-15T15:16:29;3.23;;;2.10;;
36855;SDS011;22788;51.434;6.786;2023-04-15T15:18:55;2.73;;;2.30;;
36855;SDS011;22788;51.434;6.786;2023-04-15T15:21:20;2.57;;;2.20;;
36855;SDS011;22788;51.434;6.786;2023-04-15T15:23:46;4.30;;;2.20;;
36855;SDS011;22788;51.434;6.786;2023-04-15T15:26:13;2.80;;;2.33;;
36855;SDS011;22788;51.434;6.786;2023-04-15T15:28:38;3.03;;;2.60;;
36855;SDS011;22788;51.434;6.786;2023-04-15T15:31:04;3.57;;;2.63;;
36855;SDS011;22788;51.434;6.786;2023-04-15T15:33:30;4.70;;;2.20;;
36855;SDS011;22788;51.434;6.786;2023-04-15T15:35:56;2.80;;;2.23;;
36855;SDS011;22788;51.434;6.786;2023-04-15T15:38:21;3.53;;;2.13;;
36855;SDS011;22788;51.434;6.786;2023-04-15T15:40:47;3.80;;;2.20;;
36855;SDS011;22788;51.434;6.786;2023-04-15T15:43:14;2.37;;;2.17;;
36855;SDS011;22788;51.434;6.786;2023-04-15T15:45:40;3.20;;;2.17;;
36855;SDS011;22788;51.434;6.786;2023-04-15T15:48:05;3.13;;;2.40;;
36855;SDS011;22788;51.434;6.786;2023-04-15T15:50:31;4.00;;;2.23;;
36855;SDS011;22788;51.434;6.786;2023-04-15T15:52:57;3.67;;;2.47;;
36855;SDS011;22788;51.434;6.786;2023-04-15T15:55:23;4.80;;;2.13;;
36855;SDS011;22788;51.434;6.786;2023-04-15T15:57:48;2.57;;;2.10;;